Time;durP1;ratioP1;P1;durP2;ratioP2;P2;SDS_P1;SDS_P2;PMS_P1;PMS_P2;Temp;Humidity;BMP_temperature;BMP_pressure;BME280_temperature;BME280_humidity;BME280_pressure;Samples;Min_cycle;Max_cycle;Signal;HPM_P1;HPM_P2
2024/04/08 00:02:14;;;;;;;12.60;8.60;;;;;;;11.41;100.00;100264.03;104644;1256;61342;-59
2024/04/08 00:04:43;;;;;;;12.00;8.40;;;;;;;11.36;100.00;100260.86;105011;1256;73425;-60
2024/04/08 00:07:10;;;;;;;12.70;8.50;;;;;;;11.33;100.00;100260.30;105144;1257;69026;-59
2024/04/08 00:09:38;;;;;;;12.50;8.60;;;;;;;11.32;100.00;100257.85;104957;1256;72411;-59
2024/04/08 00:12:05;;;;;;;;;;;;;;;11.46;100.00;100254.36;108465;1253;61793;-60
2024/04/08 00:14:33;;;;;;;9.70;8.10;;;;;;;11.56;100.00;100250.30;108371;1255;59463;-60
2024/04/08 00:17:01;;;;;;;13.40;8.90;;;;;;;11.55;100.00;100249.10;108331;1253;74854;-60
2024/04/08 00:19:28;;;;;;;10.60;8.40;;;;;;;11.56;100.00;100253.27;108399;1252;70319;-60
2024/04/08 00:21:56;;;;;;;12.40;8.90;;;;;;;11.60;100.00;100246.11;108338;1254;72860;-60
2024/04/08 00:24:24;;;;;;;11.30;8.60;;;;;;;11.61;100.00;100244.13;108420;1253;62374;-60
2024/04/08 00:26:51;;;;;;;9.80;8.30;;;;;;;11.63;100.00;100243.73;108418;1253;59651;-60
2024/04/08 00:29:18;;;;;;;9.70;8.30;;;;;;;11.63;100.00;100243.90;108331;1253;74398;-59
2024/04/08 00:31:47;;;;;;;11.40;8.40;;;;;;;11.63;100.00;100250.39;108398;1252;69430;-60
2024/04/08 00:34:14;;;;;;;11.40;9.20;;;;;;;11.64;100.00;100243.52;108437;1253;72063;-60
2024/04/08 00:36:42;;;;;;;11.40;8.50;;;;;;;11.61;100.00;100243.98;108318;1255;61781;-60
2024/04/08 00:39:09;;;;;;;11.00;9.20;;;;;;;11.57;100.00;100248.14;108354;1253;60656;-60
2024/04/08 00:41:37;;;;;;;11.00;8.70;;;;;;;11.49;100.00;100250.40;108399;1253;76992;-60
2024/04/08 00:44:04;;;;;;;14.20;9.00;;;;;;;11.43;100.00;100249.37;108451;1254;69128;-60
2024/04/08 00:46:32;;;;;;;10.90;8.80;;;;;;;11.45;100.00;100257.39;108446;1254;72304;-60
2024/04/08 00:49:00;;;;;;;14.10;9.50;;;;;;;11.56;100.00;100254.49;108324;1254;61860;-60
2024/04/08 00:51:27;;;;;;;10.20;8.70;;;;;;;11.60;100.00;100254.20;108374;1253;60239;-60
2024/04/08 00:53:55;;;;;;;13.70;8.70;;;;;;;11.54;100.00;100255.48;108362;1254;74377;-60
2024/04/08 00:56:22;;;;;;;11.80;9.30;;;;;;;11.45;100.00;100253.69;108434;1253;69554;-60
2024/04/08 00:58:50;;;;;;;11.60;8.40;;;;;;;11.35;100.00;100254.41;108314;1254;71738;-60
2024/04/08 01:01:17;;;;;;;11.10;8.80;;;;;;;11.37;100.00;100252.75;108358;1254;62378;-59
2024/04/08 01:03:45;;;;;;;10.90;8.30;;;;;;;11.39;100.00;100255.52;108371;1256;60089;-60
2024/04/08 01:06:12;;;;;;;11.20;7.80;;;;;;;11.42;100.00;100261.17;108446;1253;74459;-59
2024/04/08 01:08:40;;;;;;;11.00;8.50;;;;;;;11.44;100.00;100259.52;108324;1256;69234;-59
2024/04/08 01:11:08;;;;;;;10.40;7.60;;;;;;;11.44;100.00;100255.48;108369;1253;72905;-60
2024/04/08 01:13:35;;;;;;;11.80;8.70;;;;;;;11.44;100.00;100251.25;108367;1254;62457;-60
2024/04/08 01:16:04;;;;;;;10.30;8.80;;;;;;;11.44;100.00;100254.60;108361;1256;60121;-60
2024/04/08 01:18:31;;;;;;;11.70;8.40;;;;;;;11.50;100.00;100254.05;108213;1251;74466;-59
2024/04/08 01:20:59;;;;;;;10.80;8.30;;;;;;;11.41;100.00;100254.71;108350;1252;70443;-60
2024/04/08 01:23:28;;;;;;;10.70;7.90;;;;;;;11.42;100.00;100257.14;108456;1254;71831;-60
2024/04/08 01:25:55;;;;;;;12.90;8.90;;;;;;;11.42;100.00;100259.76;108450;1254;61436;-59
2024/04/08 01:28:23;;;;;;;11.40;8.60;;;;;;;11.41;100.00;100258.58;108346;1256;60156;-60
2024/04/08 01:30:50;;;;;;;12.40;9.30;;;;;;;11.38;100.00;100249.53;108347;1252;73440;-60
2024/04/08 01:33:18;;;;;;;15.00;9.00;;;;;;;11.40;100.00;100255.64;108345;1253;68476;-59
2024/04/08 01:35:46;;;;;;;13.20;8.50;;;;;;;11.42;100.00;100259.40;108358;1254;72521;-60
2024/04/08 01:38:13;;;;;;;9.50;8.30;;;;;;;11.46;100.00;100256.81;108378;1253;61413;-60
2024/04/08 01:40:41;;;;;;;9.70;7.90;;;;;;;11.48;100.00;100256.21;108388;1254;60109;-60
2024/04/08 01:43:08;;;;;;;11.30;8.60;;;;;;;11.48;100.00;100252.16;108388;1253;74471;-60
2024/04/08 01:45:36;;;;;;;10.30;8.20;;;;;;;11.45;100.00;100253.67;108372;1254;69663;-61
2024/04/08 01:48:04;;;;;;;10.30;7.80;;;;;;;11.44;100.00;100253.71;108255;1254;72220;-60
2024/04/08 01:50:32;;;;;;;11.20;7.60;;;;;;;11.43;100.00;100253.05;108391;1254;61498;-60
2024/04/08 01:52:59;;;;;;;10.60;7.40;;;;;;;11.43;100.00;100256.23;107303;1253;1134930;-60
2024/04/08 01:56:11;;;;;;;11.90;7.10;;;;;;;11.16;100.00;100257.16;101799;1295;601037;-60
2024/04/08 01:58:39;;;;;;;10.10;7.40;;;;;;;11.37;100.00;100254.52;103973;1272;61487;-60
2024/04/08 02:01:07;;;;;;;10.60;7.00;;;;;;;11.33;100.00;100251.67;103987;1272;60745;-60
2024/04/08 02:03:34;;;;;;;11.30;7.30;;;;;;;11.47;100.00;100255.39;104185;1270;73675;-59
2024/04/08 02:06:02;;;;;;;9.10;6.80;;;;;;;11.44;100.00;100254.98;103761;1271;68233;-59
2024/04/08 02:08:29;;;;;;;11.40;7.40;;;;;;;11.43;100.00;100258.50;104112;1272;75614;-60
2024/04/08 02:10:57;;;;;;;10.00;6.80;;;;;;;11.41;100.00;100260.16;103853;1264;759314;-60
2024/04/08 02:13:24;;;;;;;9.60;6.40;;;;;;;11.46;100.00;100256.66;104178;1268;59982;-60
2024/04/08 02:15:52;;;;;;;10.30;6.60;;;;;;;11.43;100.00;100257.83;104447;1264;72760;-60
2024/04/08 02:18:20;;;;;;;7.30;6.10;;;;;;;11.48;100.00;100257.96;104514;1268;70335;-59
2024/04/08 02:20:47;;;;;;;8.40;6.70;;;;;;;11.58;100.00;100250.58;104254;1267;72936;-60
2024/04/08 02:23:15;;;;;;;9.00;5.60;;;;;;;11.54;100.00;100253.52;103969;1269;60315;-60
2024/04/08 02:25:43;;;;;;;10.50;6.80;;;;;;;11.52;100.00;100256.77;103976;1268;60505;-58
2024/04/08 02:28:11;;;;;;;9.30;7.10;;;;;;;11.51;100.00;100257.15;104943;1263;74079;-60
2024/04/08 02:30:39;;;;;;;11.30;7.20;;;;;;;11.52;100.00;100253.60;104242;1269;69094;-60
2024/04/08 02:33:06;;;;;;;10.50;6.90;;;;;;;11.60;100.00;100252.08;104129;1269;72366;-59
2024/04/08 02:35:35;;;;;;;;;;;;;;;11.54;100.00;100253.38;104310;1264;61517;-60
2024/04/08 02:38:06;;;;;;;10.50;7.30;;;;;;;11.51;100.00;100252.23;104274;1271;59413;-60
2024/04/08 02:40:34;;;;;;;10.30;6.70;;;;;;;11.70;100.00;100247.66;104485;1264;74495;-59
2024/04/08 02:43:03;;;;;;;10.10;7.00;;;;;;;11.57;100.00;100252.92;104326;1276;69320;-60
2024/04/08 02:45:30;;;;;;;8.20;6.40;;;;;;;11.47;100.00;100258.17;103790;1270;71772;-59
2024/04/08 02:47:58;;;;;;;9.10;6.60;;;;;;;11.43;100.00;100259.38;104258;1269;61534;-59
2024/04/08 02:50:26;;;;;;;;;;;;;;;11.41;100.00;100257.17;104169;1269;60483;-59
2024/04/08 02:52:53;;;;;;;10.20;5.80;;;;;;;11.40;100.00;100257.21;103787;1269;74098;-59
2024/04/08 02:55:21;;;;;;;9.60;5.60;;;;;;;11.41;100.00;100258.05;104455;1257;69140;-59
2024/04/08 02:57:48;;;;;;;7.70;5.40;;;;;;;11.60;100.00;100251.90;104522;1263;72387;-59
2024/04/08 03:00:16;;;;;;;7.10;5.40;;;;;;;11.68;100.00;100252.31;104546;1263;61588;-59
2024/04/08 03:02:45;;;;;;;7.20;5.40;;;;;;;11.70;100.00;100247.52;104831;1262;62663;-59
2024/04/08 03:05:13;;;;;;;8.40;5.10;;;;;;;11.69;100.00;100248.75;104295;1273;74610;-59
2024/04/08 03:07:40;;;;;;;5.70;4.70;;;;;;;11.71;100.00;100250.11;104930;1263;70172;-59
2024/04/08 03:10:08;;;;;;;6.90;5.10;;;;;;;11.72;100.00;100254.64;104494;1257;72485;-59
2024/04/08 03:12:35;;;;;;;8.00;5.60;;;;;;;11.74;100.00;100257.73;104191;1258;61442;-59
2024/04/08 03:15:03;;;;;;;7.20;5.00;;;;;;;11.76;100.00;100259.41;104390;1263;60044;-59
2024/04/08 03:17:31;;;;;;;7.20;4.70;;;;;;;11.76;100.00;100259.91;104529;1263;74459;-59
2024/04/08 03:19:59;;;;;;;5.10;4.50;;;;;;;11.73;100.00;100258.99;104504;1262;69148;-59
2024/04/08 03:22:26;;;;;;;5.40;4.40;;;;;;;11.72;100.00;100258.70;104364;1263;71440;-59
2024/04/08 03:24:54;;;;;;;6.90;4.80;;;;;;;11.72;100.00;100254.46;104784;1263;61838;-59
2024/04/08 03:27:22;;;;;;;6.80;4.70;;;;;;;11.73;100.00;100250.20;104642;1260;60568;-59
2024/04/08 03:29:53;;;;;;;6.70;5.00;;;;;;;11.71;100.00;100250.98;104774;1260;73685;-59
2024/04/08 03:32:20;;;;;;;7.40;4.20;;;;;;;11.69;100.00;100256.32;104676;1261;70146;-59
2024/04/08 03:34:48;;;;;;;7.80;4.70;;;;;;;11.60;100.00;100259.65;104935;1256;72510;-60
2024/04/08 03:37:16;;;;;;;6.10;4.40;;;;;;;11.69;100.00;100257.88;104679;1259;61739;-60
2024/04/08 03:39:49;;;;;;;8.80;4.80;;;;;;;11.70;100.00;100262.58;104545;1258;60594;-59
2024/04/08 03:42:17;;;;;;;5.60;4.20;;;;;;;11.70;100.00;100262.42;104713;1263;73848;-59
2024/04/08 03:44:48;;;;;;;8.80;4.60;;;;;;;11.73;100.00;100270.07;104695;1261;69148;-59
2024/04/08 03:47:16;;;;;;;8.00;4.50;;;;;;;11.77;100.00;100270.05;105189;1257;72416;-59
2024/04/08 03:49:44;;;;;;;5.80;4.20;;;;;;;11.81;100.00;100264.81;104644;1266;62448;-59
2024/04/08 03:52:11;;;;;;;6.40;4.00;;;;;;;11.84;100.00;100263.48;104355;1261;60545;-59
2024/04/08 03:54:39;;;;;;;7.30;3.70;;;;;;;11.88;100.00;100264.39;104372;1262;72589;-59
2024/04/08 03:57:07;;;;;;;5.80;3.70;;;;;;;11.94;100.00;100267.35;104772;1260;68617;-59
2024/04/08 03:59:38;;;;;;;5.90;3.80;;;;;;;11.97;100.00;100270.55;104521;1264;72397;-59
2024/04/08 04:02:06;;;;;;;5.90;4.10;;;;;;;11.98;100.00;100267.02;104367;1256;61352;-59
2024/04/08 04:04:34;;;;;;;9.20;4.20;;;;;;;12.02;100.00;100267.90;104889;1260;60892;-57
2024/04/08 04:07:01;;;;;;;4.60;4.00;;;;;;;12.07;100.00;100271.77;104395;1271;73813;-55
2024/04/08 04:09:29;;;;;;;5.50;3.80;;;;;;;12.03;100.00;100270.70;107849;1257;69917;-55
2024/04/08 04:11:56;;;;;;;7.00;4.40;;;;;;;12.05;100.00;100266.41;107653;1257;72971;-55
2024/04/08 04:14:24;;;;;;;6.20;3.70;;;;;;;12.08;100.00;100266.13;107759;1260;61482;-54
2024/04/08 04:16:51;;;;;;;7.60;4.30;;;;;;;12.06;100.00;100272.67;107882;1255;58735;-55
2024/04/08 04:19:19;;;;;;;6.70;4.00;;;;;;;12.13;100.00;100273.45;107937;1257;72579;-55
2024/04/08 04:21:47;;;;;;;7.40;3.90;;;;;;;12.11;100.00;100273.18;107845;1257;69612;-54
2024/04/08 04:24:14;;;;;;;7.30;4.00;;;;;;;12.13;100.00;100273.13;107671;1257;72431;-55
2024/04/08 04:26:43;;;;;;;8.50;3.70;;;;;;;12.13;100.00;100275.92;107802;1255;63400;-54
2024/04/08 04:29:11;;;;;;;6.90;3.80;;;;;;;12.20;100.00;100280.75;107810;1254;60311;-54
2024/04/08 04:31:43;;;;;;;7.60;3.50;;;;;;;12.29;100.00;100284.95;107845;1254;73941;-54
2024/04/08 04:34:12;;;;;;;8.30;3.90;;;;;;;12.39;100.00;100283.15;107506;1254;71538;-54
2024/04/08 04:36:41;;;;;;;7.60;3.60;;;;;;;12.48;100.00;100285.27;107574;1254;73349;-55
2024/04/08 04:39:10;;;;;;;8.70;4.50;;;;;;;12.55;100.00;100283.91;107871;1254;62363;-55
2024/04/08 04:41:38;;;;;;;6.20;3.40;;;;;;;12.68;100.00;100282.34;107800;1260;60275;-55
2024/04/08 04:44:06;;;;;;;7.80;3.90;;;;;;;12.78;100.00;100288.45;107806;1254;74498;-55
2024/04/08 04:46:34;;;;;;;;;;;;;;;12.85;100.00;100282.84;107664;1254;72209;-55
2024/04/08 04:49:02;;;;;;;7.80;3.70;;;;;;;12.92;100.00;100285.73;107671;1254;74684;-55
2024/04/08 04:51:30;;;;;;;6.60;3.60;;;;;;;13.00;100.00;100289.27;107456;1254;63784;-54
2024/04/08 04:53:58;;;;;;;5.20;3.40;;;;;;;13.05;100.00;100292.05;108080;1254;59689;-60
2024/04/08 04:56:27;;;;;;;6.40;4.00;;;;;;;13.11;100.00;100296.02;107820;1260;76376;-59
2024/04/08 04:58:55;;;;;;;5.60;3.90;;;;;;;13.17;100.00;100295.95;108033;1254;69493;-58
2024/04/08 05:01:23;;;;;;;7.00;3.60;;;;;;;13.26;100.00;100298.89;107827;1257;72891;-59
2024/04/08 05:03:52;;;;;;;4.50;3.40;;;;;;;13.41;100.00;100297.54;107774;1251;61811;-59
2024/04/08 05:06:20;;;;;;;5.60;3.40;;;;;;;13.47;100.00;100300.48;108053;1251;59675;-55
2024/04/08 05:08:47;;;;;;;4.30;3.40;;;;;;;13.41;100.00;100298.45;108391;1251;73612;-55
2024/04/08 05:11:15;;;;;;;12.30;4.10;;;;;;;13.43;100.00;100300.10;108217;1258;69716;-55
2024/04/08 05:13:43;;;;;;;8.20;3.60;;;;;;;13.49;100.00;100295.83;107879;1254;74288;-55
2024/04/08 05:16:11;;;;;;;;;;;;;;;13.57;100.00;100293.35;107980;1254;61612;-56
2024/04/08 05:18:39;;;;;;;8.90;3.60;;;;;;;13.63;100.00;100298.01;108020;1251;62230;-55
2024/04/08 05:21:09;;;;;;;;;;;;;;;13.68;100.00;100301.64;108249;1251;76201;-55
2024/04/08 05:23:38;;;;;;;6.20;3.60;;;;;;;13.74;100.00;100303.51;108439;1251;69406;-56
2024/04/08 05:26:06;;;;;;;4.10;3.40;;;;;;;13.76;100.00;100300.38;108221;1254;72527;-56
2024/04/08 05:28:35;;;;;;;5.40;3.80;;;;;;;13.84;100.00;100300.23;107953;1251;61985;-56
2024/04/08 05:31:03;;;;;;;5.60;3.40;;;;;;;13.86;100.00;100294.34;108070;1251;60117;-62
2024/04/08 05:33:32;;;;;;;5.80;3.50;;;;;;;13.92;100.00;100289.65;107845;1251;75568;-56
2024/04/08 05:36:00;;;;;;;6.30;3.90;;;;;;;13.97;100.00;100290.27;107911;1251;70834;-57
2024/04/08 05:38:28;;;;;;;;;;;;;;;14.03;100.00;100291.75;108408;1251;74972;-56
2024/04/08 05:40:59;;;;;;;;;;;;;;;14.11;100.00;100296.52;108348;1251;62057;-57
2024/04/08 05:43:27;;;;;;;6.30;4.30;;;;;;;14.16;100.00;100292.58;108184;1252;62062;-56
2024/04/08 05:45:55;;;;;;;;;;;;;;;14.27;100.00;100290.81;107981;1251;73738;-56
2024/04/08 05:48:23;;;;;;;3.40;3.00;;;;;;;14.37;100.00;100291.91;107849;1257;69265;-56
2024/04/08 05:50:51;;;;;;;;;;;;;;;14.46;100.00;100286.91;108051;1251;71800;-57
2024/04/08 05:53:20;;;;;;;4.80;3.70;;;;;;;14.57;100.00;100288.17;108197;1251;63624;-56
2024/04/08 05:55:48;;;;;;;4.50;3.20;;;;;;;14.64;100.00;100287.64;108037;1251;59764;-56
2024/04/08 05:58:17;;;;;;;4.80;3.90;;;;;;;14.70;100.00;100287.86;108243;1251;73926;-55
2024/04/08 06:03:51;;;;;;;10.70;4.10;;;;;;;14.87;100.00;100291.98;103724;1291;601917;-55
2024/04/08 06:06:20;;;;;;;6.60;4.00;;;;;;;14.96;100.00;100293.48;105450;1267;61585;-56
2024/04/08 06:08:54;;;;;;;5.80;4.00;;;;;;;15.01;100.00;100293.91;105263;1267;59960;-55
2024/04/08 06:11:22;;;;;;;5.40;3.30;;;;;;;15.07;100.00;100294.66;105000;1267;72850;-56
2024/04/08 06:13:50;;;;;;;7.70;3.70;;;;;;;15.18;100.00;100298.67;104836;1266;69961;-55
2024/04/08 06:16:17;;;;;;;8.30;4.10;;;;;;;15.25;100.00;100298.69;104735;1270;900776;-54
2024/04/08 06:18:46;;;;;;;7.20;4.00;;;;;;;15.33;100.00;100298.95;105318;1263;63420;-55
2024/04/08 06:21:13;;;;;;;6.50;4.00;;;;;;;15.42;100.00;100293.58;105421;1264;59775;-55
2024/04/08 06:23:41;;;;;;;8.20;4.40;;;;;;;15.52;100.00;100294.98;105989;1252;73312;-55
2024/04/08 06:26:09;;;;;;;8.80;3.60;;;;;;;15.60;100.00;100299.33;106435;1251;70230;-56
2024/04/08 06:28:36;;;;;;;8.90;3.90;;;;;;;15.69;100.00;100300.96;106186;1253;73175;-56
2024/04/08 06:31:04;;;;;;;6.20;3.90;;;;;;;15.78;100.00;100305.45;105918;1251;61202;-55
2024/04/08 06:33:32;;;;;;;;;;;;;;;15.86;100.00;100303.84;106314;1251;60443;-55
2024/04/08 06:36:00;;;;;;;7.10;4.10;;;;;;;15.89;100.00;100304.31;105838;1251;75821;-55
2024/04/08 06:38:28;;;;;;;6.80;3.90;;;;;;;16.00;100.00;100303.93;105836;1254;69693;-55
2024/04/08 06:40:55;;;;;;;7.00;3.70;;;;;;;16.15;100.00;100298.52;106377;1253;72177;-56
2024/04/08 06:43:23;;;;;;;6.70;4.00;;;;;;;16.29;100.00;100294.88;106410;1253;61806;-56
2024/04/08 06:45:58;;;;;;;13.40;3.60;;;;;;;16.31;100.00;100302.77;105915;1254;60450;-55
2024/04/08 06:48:25;;;;;;;3.90;3.20;;;;;;;16.25;100.00;100308.94;105958;1251;72689;-56
2024/04/08 06:50:53;;;;;;;8.20;3.60;;;;;;;16.38;100.00;100314.20;106220;1256;69629;-55
2024/04/08 06:53:22;;;;;;;9.00;4.30;;;;;;;16.47;100.00;100315.64;106164;1255;72815;-55
2024/04/08 06:55:50;;;;;;;8.50;3.60;;;;;;;16.55;100.00;100317.30;106424;1254;61002;-55
2024/04/08 06:58:19;;;;;;;7.00;3.90;;;;;;;16.71;100.00;100313.04;106550;1251;60469;-55
2024/04/08 07:00:47;;;;;;;6.50;3.80;;;;;;;16.82;100.00;100308.38;106199;1251;74350;-55
2024/04/08 07:03:15;;;;;;;5.00;3.40;;;;;;;16.91;100.00;100311.55;106518;1254;69315;-56
2024/04/08 07:05:45;;;;;;;5.40;3.70;;;;;;;17.02;100.00;100312.16;105815;1254;73226;-56
2024/04/08 07:08:12;;;;;;;6.80;3.60;;;;;;;17.13;100.00;100311.15;106149;1251;61607;-56
2024/04/08 07:10:45;;;;;;;10.70;4.00;;;;;;;17.23;100.00;100311.64;105845;1251;60418;-56
2024/04/08 07:13:13;;;;;;;5.30;3.80;;;;;;;17.41;100.00;100318.33;106076;1251;73982;-56
2024/04/08 07:15:41;;;;;;;5.60;3.80;;;;;;;17.55;100.00;100314.11;106064;1252;70212;-55
2024/04/08 07:18:11;;;;;;;6.80;4.00;;;;;;;17.62;100.00;100309.99;106560;1253;72399;-56
2024/04/08 07:20:38;;;;;;;;;;;;;;;17.75;100.00;100312.02;107392;1251;61611;-56
2024/04/08 07:23:08;;;;;;;8.10;4.10;;;;;;;17.90;100.00;100317.70;106965;1251;60489;-55
2024/04/08 07:25:35;;;;;;;5.80;3.50;;;;;;;18.05;100.00;100310.90;106662;1251;73922;-55
2024/04/08 07:28:03;;;;;;;6.30;3.50;;;;;;;18.27;99.31;100309.86;106472;1251;69288;-55
2024/04/08 07:30:31;;;;;;;10.70;4.30;;;;;;;18.55;96.35;100303.40;106026;1251;72686;-55
2024/04/08 07:33:02;;;;;;;7.30;3.60;;;;;;;18.56;93.46;100299.77;106802;1251;60620;-55
2024/04/08 07:35:31;;;;;;;7.70;3.50;;;;;;;18.59;93.10;100296.55;106666;1254;60682;-55
2024/04/08 07:37:59;;;;;;;9.90;3.90;;;;;;;18.62;92.12;100293.52;106320;1251;73900;-55
2024/04/08 07:40:26;;;;;;;8.20;3.50;;;;;;;18.73;90.79;100288.55;106685;1254;70117;-55
2024/04/08 07:42:54;;;;;;;;;;;;;;;18.84;88.09;100294.58;106062;1253;73507;-56
2024/04/08 07:45:23;;;;;;;7.30;3.10;;;;;;;18.99;86.29;100291.08;106837;1253;61493;-56
2024/04/08 07:47:51;;;;;;;6.10;3.00;;;;;;;19.17;85.53;100293.21;106804;1254;60910;-56
2024/04/08 07:50:19;;;;;;;;;;;;;;;19.22;85.84;100289.23;107056;1253;74272;-55
2024/04/08 07:52:47;;;;;;;5.00;2.60;;;;;;;19.57;80.96;100281.48;106800;1251;68091;-55
2024/04/08 07:55:15;;;;;;;6.00;2.80;;;;;;;19.53;80.59;100277.23;106995;1254;73146;-58
2024/04/08 07:57:46;;;;;;;9.30;3.00;;;;;;;19.65;80.18;100277.86;106276;1251;60444;-58
2024/04/08 08:00:14;;;;;;;8.00;2.80;;;;;;;19.87;76.09;100283.97;107425;1251;60429;-55
2024/04/08 08:02:43;;;;;;;8.30;3.30;;;;;;;19.85;74.71;100285.92;106208;1254;74482;-55
2024/04/08 08:05:11;;;;;;;7.30;2.20;;;;;;;19.97;67.91;100281.86;106889;1251;69182;-55
2024/04/08 08:07:38;;;;;;;3.30;2.50;;;;;;;20.19;66.89;100284.85;106260;1251;74133;-56
2024/04/08 08:10:08;;;;;;;7.00;3.50;;;;;;;20.32;67.79;100281.65;106485;1254;60465;-55
2024/04/08 08:12:37;;;;;;;6.00;3.00;;;;;;;20.43;66.47;100284.35;106290;1254;60494;-56
2024/04/08 08:15:10;;;;;;;9.70;3.20;;;;;;;20.60;66.22;100281.52;106654;1251;73715;-55
2024/04/08 08:17:41;;;;;;;7.90;2.70;;;;;;;20.67;65.68;100278.39;106264;1256;72188;-55
2024/04/08 08:20:09;;;;;;;6.10;2.70;;;;;;;20.96;64.33;100279.58;106904;1253;73205;-55
2024/04/08 08:22:37;;;;;;;4.40;2.40;;;;;;;21.05;60.98;100277.29;106066;1258;60460;-56
2024/04/08 08:25:05;;;;;;;3.50;2.20;;;;;;;21.04;60.95;100281.41;107521;1253;60398;-56
2024/04/08 08:27:32;;;;;;;8.20;2.60;;;;;;;21.15;59.39;100280.22;106857;1251;74149;-55
2024/04/08 08:30:00;;;;;;;5.00;2.50;;;;;;;21.07;57.80;100276.93;106895;1251;68145;-56
2024/04/08 08:32:27;;;;;;;4.60;1.70;;;;;;;21.09;57.44;100274.83;106895;1253;73188;-55
2024/04/08 08:34:56;;;;;;;4.60;2.20;;;;;;;21.19;56.05;100282.06;106742;1252;60434;-55
2024/04/08 08:37:23;;;;;;;3.40;2.20;;;;;;;21.27;56.18;100282.51;105595;1254;59945;-55
2024/04/08 08:39:51;;;;;;;4.00;2.20;;;;;;;21.33;55.12;100281.00;105603;1260;74369;-54
2024/04/08 08:42:21;;;;;;;6.20;2.00;;;;;;;21.36;55.65;100281.95;105811;1257;72878;-55
2024/04/08 08:44:52;;;;;;;4.80;2.30;;;;;;;21.51;55.20;100277.35;105684;1256;72935;-55
2024/04/08 08:47:23;;;;;;;4.30;1.70;;;;;;;21.67;55.06;100276.02;105768;1252;60757;-55
2024/04/08 08:50:02;;;;;;;5.00;2.00;;;;;;;21.82;52.85;100278.95;105997;1253;60990;-54
2024/04/08 08:52:30;;;;;;;8.30;2.60;;;;;;;21.93;50.61;100272.70;106074;1251;73931;-55
2024/04/08 08:54:58;;;;;;;9.70;2.20;;;;;;;21.96;50.78;100260.70;106340;1252;70238;-55
2024/04/08 08:57:25;;;;;;;10.00;2.10;;;;;;;21.97;51.03;100256.35;105750;1251;72517;-56
2024/04/08 08:59:53;;;;;;;5.80;2.20;;;;;;;21.98;50.43;100258.73;105211;1253;60565;-56
2024/04/08 09:02:21;;;;;;;5.50;1.90;;;;;;;22.04;49.34;100253.80;105708;1251;60558;-56
2024/04/08 09:04:48;;;;;;;4.00;2.00;;;;;;;22.05;48.56;100250.52;105372;1251;72994;-56
2024/04/08 09:07:16;;;;;;;5.50;2.50;;;;;;;22.13;49.40;100251.98;105967;1256;69700;-57
2024/04/08 09:09:56;;;;;;;7.60;2.40;;;;;;;22.22;49.96;100239.31;105653;1251;73298;-56
2024/04/08 09:12:24;;;;;;;5.80;1.90;;;;;;;22.32;49.99;100238.58;105768;1253;60469;-56
2024/04/08 09:14:52;;;;;;;4.90;2.40;;;;;;;22.42;47.81;100238.46;105689;1251;60533;-56
2024/04/08 09:17:20;;;;;;;3.10;1.50;;;;;;;22.42;47.20;100234.15;106358;1253;72641;-56
2024/04/08 09:19:48;;;;;;;5.00;2.00;;;;;;;22.48;47.40;100239.90;105562;1256;68440;-55
2024/04/08 09:22:15;;;;;;;3.90;1.40;;;;;;;22.64;46.05;100237.33;105519;1252;72518;-55
2024/04/08 09:24:43;;;;;;;6.80;2.10;;;;;;;22.76;46.24;100233.67;105819;1251;61726;-55
2024/04/08 09:27:11;;;;;;;5.70;2.10;;;;;;;22.77;46.15;100234.09;105996;1251;60629;-55
2024/04/08 09:29:38;;;;;;;6.40;2.30;;;;;;;22.72;45.78;100231.98;106384;1251;72624;-55
2024/04/08 09:32:08;;;;;;;5.40;2.30;;;;;;;22.67;46.11;100232.55;105539;1254;68726;-56
2024/04/08 09:34:36;;;;;;;2.90;1.90;;;;;;;22.77;46.33;100230.90;106170;1254;72781;-55
2024/04/08 09:37:03;;;;;;;4.40;1.70;;;;;;;22.88;45.96;100227.79;106182;1254;60678;-55
2024/04/08 09:39:31;;;;;;;4.40;1.50;;;;;;;22.92;44.66;100226.02;106226;1256;60836;-55
2024/04/08 09:41:59;;;;;;;4.30;2.10;;;;;;;23.00;44.81;100223.55;105816;1251;72558;-55
2024/04/08 09:44:30;;;;;;;6.00;1.70;;;;;;;23.04;44.70;100223.04;106424;1251;70206;-56
2024/04/08 09:46:59;;;;;;;4.30;1.80;;;;;;;23.11;44.64;100223.66;106093;1258;72772;-59
2024/04/08 09:49:27;;;;;;;5.20;1.60;;;;;;;23.25;44.43;100218.39;105861;1251;60504;-55
2024/04/08 09:52:08;;;;;;;5.50;2.20;;;;;;;23.35;43.66;100222.16;105607;1253;60527;-55
2024/04/08 09:54:36;;;;;;;3.70;1.70;;;;;;;23.39;42.65;100219.17;105881;1258;74001;-55
2024/04/08 09:57:05;;;;;;;5.30;1.40;;;;;;;23.40;43.37;100212.41;105975;1253;69468;-55
2024/04/08 09:59:32;;;;;;;3.80;1.90;;;;;;;23.50;42.71;100211.02;105609;1256;73192;-55
2024/04/08 10:02:00;;;;;;;4.60;2.10;;;;;;;23.62;42.93;100208.55;105741;1254;60454;-56
2024/04/08 10:04:36;;;;;;;5.70;1.80;;;;;;;23.72;43.00;100208.04;106180;1251;60630;-55
2024/04/08 10:07:05;;;;;;;4.80;1.70;;;;;;;23.76;42.60;100206.02;105816;1253;73282;-54
2024/04/08 10:09:33;;;;;;;3.40;1.80;;;;;;;23.71;42.11;100201.31;105549;1256;69980;-55
2024/04/08 10:12:02;;;;;;;5.90;1.80;;;;;;;23.69;42.27;100195.88;105518;1256;71911;-55
2024/04/08 10:14:30;;;;;;;3.20;1.70;;;;;;;23.79;41.96;100196.13;105781;1255;61358;-56
2024/04/08 10:17:00;;;;;;;4.80;1.90;;;;;;;23.87;42.12;100194.02;105990;1251;61320;-57
2024/04/08 10:19:28;;;;;;;4.60;1.60;;;;;;;23.96;41.80;100192.82;105799;1252;73452;-56
2024/04/08 10:21:59;;;;;;;;;;;;;;;24.08;41.43;100194.46;106099;1253;69688;-56
2024/04/08 10:24:27;;;;;;;5.60;1.70;;;;;;;24.11;40.66;100190.23;106203;1253;73153;-56
2024/04/08 10:27:06;;;;;;;5.80;1.60;;;;;;;24.15;40.27;100185.03;105721;1252;61244;-57
2024/04/08 10:29:35;;;;;;;4.10;2.00;;;;;;;24.04;39.96;100184.77;105869;1252;61368;-55
2024/04/08 10:32:04;;;;;;;3.50;2.00;;;;;;;23.96;40.83;100176.03;105945;1253;73735;-56
2024/04/08 10:34:34;;;;;;;4.20;1.90;;;;;;;23.97;40.42;100175.58;106160;1251;68700;-56
2024/04/08 10:37:01;;;;;;;5.00;2.00;;;;;;;24.02;39.76;100169.75;105430;1254;73160;-56
2024/04/08 10:39:29;;;;;;;5.00;1.80;;;;;;;23.99;39.81;100172.13;105664;1254;61405;-55
2024/04/08 10:41:57;;;;;;;5.60;1.40;;;;;;;23.94;39.93;100176.90;105870;1253;61246;-56
2024/04/08 10:44:28;;;;;;;4.20;1.90;;;;;;;24.06;40.15;100169.56;105496;1257;74401;-56
2024/04/08 10:46:55;;;;;;;2.00;1.50;;;;;;;24.26;39.39;100159.86;106163;1253;69802;-54
2024/04/08 10:49:23;;;;;;;3.50;1.60;;;;;;;24.33;39.53;100156.67;106071;1253;71408;-54
2024/04/08 10:51:51;;;;;;;3.10;1.60;;;;;;;24.38;39.34;100156.80;106105;1253;61361;-54
2024/04/08 10:54:18;;;;;;;4.70;1.80;;;;;;;24.45;39.57;100156.46;106139;1251;59981;-55
2024/04/08 10:56:46;;;;;;;;;;;;;;;24.57;39.51;100154.88;106184;1253;75466;-54
2024/04/08 10:59:14;;;;;;;;;;;;;;;24.56;39.27;100155.80;106053;1251;69534;-55
2024/04/08 11:01:41;;;;;;;;;;;;;;;24.32;39.42;100146.35;105592;1260;73527;-55
2024/04/08 11:04:09;;;;;;;3.20;1.50;;;;;;;24.47;39.43;100142.84;105742;1254;60950;-55
2024/04/08 11:06:36;;;;;;;6.20;1.60;;;;;;;24.48;39.16;100137.70;106036;1253;61366;-56
2024/04/08 11:09:04;;;;;;;3.90;1.70;;;;;;;24.41;39.38;100132.43;105713;1255;74612;-55
2024/04/08 11:11:32;;;;;;;3.00;1.60;;;;;;;24.61;38.78;100135.96;105747;1251;70573;-55
2024/04/08 11:14:00;;;;;;;2.70;1.70;;;;;;;24.61;38.92;100139.45;106047;1254;72461;-56
2024/04/08 11:16:32;;;;;;;4.90;1.80;;;;;;;24.72;38.79;100137.30;105835;1253;61345;-56
2024/04/08 11:19:03;;;;;;;2.70;1.60;;;;;;;24.92;38.47;100134.40;105749;1250;61448;-55
2024/04/08 11:21:31;;;;;;;3.20;1.50;;;;;;;24.94;37.92;100130.88;105728;1251;75130;-55
2024/04/08 11:23:58;;;;;;;2.90;1.50;;;;;;;25.19;37.33;100126.92;105716;1253;71263;-56